Terminal Aerodrome Forecast
Issued by NWS Cleveland, OH

Home | Current Version | Previous Version | Text Only | Print | Product List | Glossary Off
Versions: 1 2 3 4 5 6 7 8 9 10 11 12

000
FTUS41 KCLE 291735
TAFMFD
TAF
KMFD 291735Z 2918/3018 20006KT P6SM SCT040 BKN250
     FM292100 24008KT P6SM VCTS SCT040CB BKN150
      TEMPO 2921/2924 3SM -TSRA OVC020CB
     FM300100 26006KT P6SM BKN040 OVC120
     FM301000 27008KT P6SM SCT250=

USA.gov is the U.S. government's official web portal to all federal, state and local government web resources and services.